Time;durP1;ratioP1;P1;durP2;ratioP2;P2;SDS_P1;SDS_P2;PMS_P1;PMS_P2;Temp;Humidity;BMP_temperature;BMP_pressure;BME280_temperature;BME280_humidity;BME280_pressure;Samples;Min_cycle;Max_cycle;Signal;HPM_P1;HPM_P2
2022/02/23 00:01:08;;;;;;;0.50;0.50;;;;;;;8.05;87.06;96731.72;5040290;28;20229;-73
2022/02/23 00:03:35;;;;;;;1.03;0.97;;;;;;;7.92;87.83;96733.88;5039534;28;20701;-73
2022/02/23 00:06:01;;;;;;;0.20;0.20;;;;;;;8.12;87.18;96735.38;5040598;28;20205;-72
2022/02/23 00:08:28;;;;;;;2.60;0.50;;;;;;;8.00;87.25;96739.22;5040118;28;20201;-73
2022/02/23 00:10:56;;;;;;;3.20;0.60;;;;;;;8.04;87.36;96728.28;5040191;28;20225;-73
2022/02/23 00:13:23;;;;;;;4.13;0.80;;;;;;;8.06;87.06;96723.69;5039847;28;20640;-73
2022/02/23 00:15:50;;;;;;;0.30;0.30;;;;;;;8.19;87.37;96736.47;5039947;28;20670;-72
2022/02/23 00:18:17;;;;;;;5.90;1.10;;;;;;;8.13;86.49;96721.28;5039897;28;20220;-73
2022/02/23 00:20:43;;;;;;;1.00;0.47;;;;;;;8.03;87.48;96721.38;5039900;28;20221;-73
2022/02/23 00:23:10;;;;;;;5.80;0.93;;;;;;;8.10;87.64;96724.22;5039566;28;20201;-73
2022/02/23 00:25:36;;;;;;;0.70;0.50;;;;;;;8.12;87.13;96724.88;5039795;28;20212;-73
2022/02/23 00:28:03;;;;;;;0.37;0.37;;;;;;;8.02;87.73;96727.59;5040085;28;20205;-72
2022/02/23 00:30:29;;;;;;;0.47;0.40;;;;;;;8.14;86.64;96730.84;5040160;28;20225;-73
2022/02/23 00:32:57;;;;;;;0.57;0.43;;;;;;;8.38;87.25;96720.56;5039497;28;20251;-73
2022/02/23 00:35:24;;;;;;;0.73;0.50;;;;;;;8.17;87.11;96722.66;5039246;28;20205;-72
2022/02/23 00:37:50;;;;;;;0.83;0.70;;;;;;;8.15;87.38;96722.00;5039860;28;20216;-72
2022/02/23 00:40:17;;;;;;;0.50;0.50;;;;;;;8.26;86.45;96709.47;5039707;28;20205;-73
2022/02/23 00:42:43;;;;;;;2.93;0.40;;;;;;;8.21;87.45;96724.00;5038841;28;20566;-73
2022/02/23 00:45:10;;;;;;;1.90;0.60;;;;;;;8.33;86.83;96714.94;5039967;28;20205;-72
2022/02/23 00:47:37;;;;;;;2.43;0.80;;;;;;;8.19;87.10;96716.28;5040020;28;20284;-73
2022/02/23 00:50:06;;;;;;;1.10;0.67;;;;;;;8.35;87.18;96723.47;5039089;28;20853;-72
2022/02/23 00:52:32;;;;;;;2.43;1.20;;;;;;;8.24;86.82;96715.84;5038703;28;20202;-73
2022/02/23 00:54:59;;;;;;;0.43;0.37;;;;;;;8.28;86.98;96717.19;5040005;28;20205;-73
2022/02/23 00:57:25;;;;;;;6.90;0.83;;;;;;;8.33;87.15;96722.81;5039377;28;20225;-73
2022/02/23 00:59:52;;;;;;;0.70;0.67;;;;;;;8.34;87.12;96727.06;5038700;28;20638;-73
2022/02/23 01:02:18;;;;;;;1.60;0.70;;;;;;;8.36;87.25;96727.75;5039644;28;20227;-73
2022/02/23 01:04:45;;;;;;;0.30;0.30;;;;;;;8.37;87.34;96724.16;5038794;28;20201;-73
2022/02/23 01:07:14;;;;;;;2.77;1.17;;;;;;;8.47;87.29;96733.59;5037770;28;20217;-73
2022/02/23 01:09:41;;;;;;;13.57;0.93;;;;;;;8.50;87.86;96715.75;5039491;28;20221;-73
2022/02/23 01:12:08;;;;;;;0.57;0.50;;;;;;;8.35;89.09;96721.69;5039161;28;20562;-72
2022/02/23 01:14:34;;;;;;;0.80;0.73;;;;;;;8.30;89.69;96728.34;5038510;28;20596;-73
2022/02/23 01:17:01;;;;;;;1.80;0.63;;;;;;;8.14;90.62;96730.84;5039019;28;20209;-73
2022/02/23 01:19:27;;;;;;;4.53;0.90;;;;;;;8.36;90.09;96730.38;5038839;28;20213;-73
2022/02/23 01:21:54;;;;;;;0.63;0.43;;;;;;;8.27;90.21;96718.16;5038706;28;20233;-73
2022/02/23 01:24:23;;;;;;;1.27;0.40;;;;;;;8.43;89.71;96737.50;5038376;28;20247;-72
2022/02/23 01:26:49;;;;;;;2.77;0.60;;;;;;;8.26;89.67;96738.34;5038814;28;20216;-73
2022/02/23 01:29:16;;;;;;;0.90;0.50;;;;;;;8.23;89.89;96733.38;5038877;28;20237;-73
2022/02/23 01:31:42;;;;;;;1.07;0.60;;;;;;;8.35;88.90;96736.59;5038379;28;20295;-72
2022/02/23 01:34:09;;;;;;;0.47;0.47;;;;;;;8.37;89.76;96745.16;5038320;28;20225;-73
2022/02/23 01:36:35;;;;;;;2.40;0.63;;;;;;;8.30;89.98;96741.47;5039321;28;20197;-72
2022/02/23 01:39:02;;;;;;;1.07;0.50;;;;;;;8.24;90.43;96739.47;5038491;28;20201;-73
2022/02/23 01:41:30;;;;;;;5.83;1.33;;;;;;;8.40;90.91;96742.22;5037920;28;20228;-73
2022/02/23 01:43:56;;;;;;;0.83;0.70;;;;;;;8.29;90.67;96752.97;5037944;28;20702;-73
2022/02/23 01:46:23;;;;;;;0.43;0.43;;;;;;;8.26;91.15;96738.34;5038929;28;20205;-72
2022/02/23 01:48:49;;;;;;;0.40;0.40;;;;;;;8.16;91.88;96736.75;5038503;28;20255;-73
2022/02/23 01:51:16;;;;;;;1.23;1.13;;;;;;;8.32;91.22;96742.16;5038222;28;20217;-73
2022/02/23 01:53:43;;;;;;;1.83;1.17;;;;;;;8.43;90.23;96744.56;5037628;28;20324;-73
2022/02/23 01:56:09;;;;;;;0.40;0.40;;;;;;;8.26;92.03;96743.59;5038305;28;20205;-73
2022/02/23 01:58:37;;;;;;;3.60;0.37;;;;;;;8.32;92.46;96750.03;5038035;28;20208;-72
2022/02/23 02:01:04;;;;;;;0.43;0.43;;;;;;;8.38;91.71;96742.38;5038145;28;20225;-73
2022/02/23 02:03:30;;;;;;;0.47;0.47;;;;;;;8.26;92.41;96748.84;5037161;28;20197;-73
2022/02/23 02:05:57;;;;;;;7.90;0.57;;;;;;;8.32;91.82;96757.91;5037929;28;20205;-72
2022/02/23 02:08:23;;;;;;;1.63;0.40;;;;;;;8.27;92.03;96754.91;5038711;28;20208;-73
2022/02/23 02:10:50;;;;;;;3.20;0.60;;;;;;;8.35;92.15;96744.47;5037523;28;20229;-73
2022/02/23 02:13:16;;;;;;;0.40;0.40;;;;;;;8.17;92.68;96752.38;5036857;28;20229;-73
2022/02/23 02:15:44;;;;;;;1.53;0.60;;;;;;;8.29;93.37;96753.78;5038872;28;20213;-73
2022/02/23 02:18:11;;;;;;;0.50;0.50;;;;;;;8.22;92.83;96758.00;5037953;28;20318;-73
2022/02/23 02:20:37;;;;;;;0.50;0.50;;;;;;;8.24;93.77;96769.16;5037315;28;20236;-73
2022/02/23 02:23:05;;;;;;;0.40;0.40;;;;;;;8.40;94.39;96771.97;5037561;28;20212;-73
2022/02/23 02:25:31;;;;;;;0.40;0.30;;;;;;;8.41;94.08;96775.41;5038656;28;20550;-73
2022/02/23 02:27:58;;;;;;;2.40;0.73;;;;;;;8.15;95.07;96775.31;5037698;28;20205;-73
2022/02/23 02:30:24;;;;;;;2.07;0.50;;;;;;;8.24;95.50;96778.84;5037447;28;20534;-72
2022/02/23 02:32:51;;;;;;;0.67;0.67;;;;;;;8.11;96.14;96788.88;5037267;28;20205;-72
2022/02/23 02:35:17;;;;;;;0.80;0.70;;;;;;;8.23;95.12;96787.69;5037280;28;20228;-73
2022/02/23 02:37:44;;;;;;;0.80;0.80;;;;;;;8.39;94.85;96790.47;5037474;28;20217;-73
2022/02/23 02:40:12;;;;;;;0.50;0.50;;;;;;;8.37;96.22;96792.44;5037762;28;20575;-73
2022/02/23 02:42:39;;;;;;;0.90;0.43;;;;;;;8.18;96.60;96792.56;5036612;28;20212;-72
2022/02/23 02:45:06;;;;;;;3.60;0.40;;;;;;;8.32;97.17;96792.88;5037178;28;20201;-73
2022/02/23 02:47:33;;;;;;;0.93;0.87;;;;;;;8.09;97.02;96798.69;5037196;28;20208;-73
2022/02/23 02:50:00;;;;;;;3.30;0.30;;;;;;;8.19;97.58;96816.03;5037167;28;20209;-73
2022/02/23 02:52:26;;;;;;;0.43;0.40;;;;;;;8.12;97.67;96824.63;5036315;28;20675;-72
2022/02/23 02:54:53;;;;;;;1.63;0.50;;;;;;;8.17;97.76;96825.03;5037255;28;20229;-72
2022/02/23 02:57:21;;;;;;;2.80;0.83;;;;;;;8.27;98.55;96838.94;5037287;28;20205;-73
2022/02/23 02:59:47;;;;;;;0.57;0.57;;;;;;;8.34;97.66;96847.84;5036794;28;20208;-73
2022/02/23 03:02:14;;;;;;;0.30;0.30;;;;;;;8.33;98.53;96880.38;5036530;28;20233;-73
2022/02/23 03:04:40;;;;;;;0.30;0.30;;;;;;;7.87;100.00;96922.41;5039630;28;20194;-73
2022/02/23 03:07:07;;;;;;;0.53;0.53;;;;;;;6.53;96.13;96935.00;5041514;28;20700;-73
2022/02/23 03:09:33;;;;;;;0.67;0.30;;;;;;;6.32;97.15;96960.44;5043168;28;20209;-74
2022/02/23 03:12:00;;;;;;;3.90;0.30;;;;;;;5.99;98.12;96977.41;5045889;28;20228;-74
2022/02/23 03:14:27;;;;;;;0.20;0.20;;;;;;;5.72;98.38;96990.19;5042792;28;20233;-74
2022/02/23 03:16:54;;;;;;;0.20;0.20;;;;;;;5.74;98.05;96993.47;5044470;28;20208;-73
2022/02/23 03:19:20;;;;;;;13.37;0.87;;;;;;;5.86;97.45;96992.50;5040903;28;20224;-74
2022/02/23 03:21:47;;;;;;;0.20;0.20;;;;;;;5.92;97.30;96991.94;5042323;28;20229;-74
2022/02/23 03:24:14;;;;;;;0.33;0.33;;;;;;;5.92;96.69;96991.94;5040941;28;20721;-74
2022/02/23 03:26:40;;;;;;;3.17;1.63;;;;;;;6.05;96.35;96998.63;5042751;28;21163;-74
2022/02/23 03:29:07;;;;;;;0.20;0.20;;;;;;;6.15;96.34;96997.72;5044801;28;20291;-74
2022/02/23 03:31:34;;;;;;;2.17;0.37;;;;;;;6.33;95.74;97003.16;5046847;28;20224;-74
2022/02/23 03:34:01;;;;;;;0.30;0.30;;;;;;;6.25;96.02;97000.34;5047316;28;20705;-74
2022/02/23 03:36:27;;;;;;;0.30;0.30;;;;;;;6.25;95.82;97003.81;5047674;28;20224;-74
2022/02/23 03:38:54;;;;;;;0.47;0.30;;;;;;;6.33;95.06;97003.16;5050394;28;20212;-74
2022/02/23 03:41:20;;;;;;;0.23;0.23;;;;;;;6.19;94.45;97011.34;5049493;28;20574;-73
2022/02/23 03:43:47;;;;;;;0.23;0.23;;;;;;;6.48;93.37;97013.13;5051200;28;20201;-73
2022/02/23 03:46:13;;;;;;;0.47;0.43;;;;;;;6.35;94.68;97006.44;5051291;28;20212;-73
2022/02/23 03:48:41;;;;;;;1.80;1.07;;;;;;;6.48;93.01;97018.34;5051526;28;20630;-73
2022/02/23 03:51:09;;;;;;;0.37;0.37;;;;;;;6.51;92.92;97006.78;5051438;28;20225;-73
2022/02/23 03:53:36;;;;;;;0.20;0.20;;;;;;;6.32;93.46;97012.78;5051187;28;20216;-73
2022/02/23 03:56:02;;;;;;;0.20;0.20;;;;;;;6.33;92.99;97009.19;5051427;28;20561;-73
2022/02/23 03:58:30;;;;;;;0.30;0.30;;;;;;;6.62;92.80;97006.66;5051417;28;20681;-73
2022/02/23 04:00:56;;;;;;;0.30;0.30;;;;;;;6.37;93.32;97021.06;5051187;28;20225;-73
2022/02/23 04:03:22;;;;;;;0.20;0.20;;;;;;;6.23;92.59;97031.88;5050442;28;20700;-73
2022/02/23 04:05:50;;;;;;;1.33;0.93;;;;;;;6.60;92.43;97022.50;5051410;28;20237;-73
2022/02/23 04:08:17;;;;;;;1.50;0.70;;;;;;;6.46;91.86;97033.34;5051678;28;20211;-73
2022/02/23 04:10:43;;;;;;;0.20;0.20;;;;;;;6.52;91.94;97042.47;5050889;28;20229;-73
2022/02/23 04:13:10;;;;;;;0.40;0.40;;;;;;;6.39;91.95;97049.72;5051133;28;20205;-73
2022/02/23 04:15:36;;;;;;;0.23;0.23;;;;;;;6.46;91.76;97046.44;5051118;28;20236;-73
2022/02/23 04:18:03;;;;;;;0.30;0.30;;;;;;;6.53;91.03;97065.91;5051018;28;20225;-73
2022/02/23 04:20:29;;;;;;;0.57;0.40;;;;;;;6.55;91.67;97053.50;5050795;28;20720;-73
2022/02/23 04:22:57;;;;;;;0.37;0.37;;;;;;;6.76;91.44;97059.50;5050350;28;20206;-73
2022/02/23 04:25:24;;;;;;;0.60;0.60;;;;;;;6.61;91.55;97071.31;5049773;28;20197;-73
2022/02/23 04:27:50;;;;;;;2.27;0.60;;;;;;;6.49;91.24;97080.22;5051093;28;20197;-73
2022/02/23 04:30:17;;;;;;;0.40;0.40;;;;;;;6.65;92.41;97074.50;5041827;28;20217;-73
2022/02/23 04:32:43;;;;;;;0.30;0.30;;;;;;;6.69;92.37;97084.56;5049635;28;20561;-73
2022/02/23 04:35:10;;;;;;;0.30;0.30;;;;;;;6.60;92.02;97095.81;5051387;28;20218;-73
2022/02/23 04:37:37;;;;;;;0.30;0.30;;;;;;;6.53;91.41;97099.94;5051478;28;20212;-73
2022/02/23 04:40:06;;;;;;;0.40;0.40;;;;;;;6.80;91.83;97110.66;5051364;28;20213;-73
2022/02/23 04:42:33;;;;;;;0.40;0.40;;;;;;;6.81;91.61;97099.19;5054459;28;20208;-73
2022/02/23 04:45:01;;;;;;;0.37;0.33;;;;;;;6.80;92.71;97102.81;5055063;28;20280;-73
2022/02/23 04:47:29;;;;;;;0.20;0.20;;;;;;;6.68;92.56;97112.56;5050951;28;20209;-73
2022/02/23 04:49:55;;;;;;;0.33;0.33;;;;;;;6.69;93.29;97113.38;5054700;28;20213;-73
2022/02/23 04:52:24;;;;;;;3.33;2.00;;;;;;;6.76;93.08;97099.63;5054498;28;20240;-73
2022/02/23 04:54:50;;;;;;;2.43;2.13;;;;;;;6.73;93.19;97101.66;5054412;28;20220;-73
2022/02/23 04:57:18;;;;;;;3.93;2.67;;;;;;;6.92;93.12;97096.50;5054741;28;20208;-73
2022/02/23 04:59:45;;;;;;;2.37;1.50;;;;;;;6.68;92.89;97098.59;5054585;28;20661;-73
2022/02/23 05:02:11;;;;;;;0.87;0.63;;;;;;;6.50;94.07;97094.13;5054642;28;20255;-73
2022/02/23 05:04:38;;;;;;;0.60;0.50;;;;;;;6.43;94.04;97108.69;5054687;28;20189;-73
2022/02/23 05:07:05;;;;;;;0.30;0.30;;;;;;;6.45;93.70;97102.38;5054328;28;20208;-73
2022/02/23 05:09:32;;;;;;;1.00;0.83;;;;;;;6.51;93.15;97114.13;5054421;28;20201;-73
2022/02/23 05:11:58;;;;;;;8.93;0.60;;;;;;;6.32;92.91;97112.22;5054497;28;20590;-73
2022/02/23 05:14:26;;;;;;;1.07;0.60;;;;;;;6.74;92.97;97113.81;5054124;28;20232;-73
2022/02/23 05:16:52;;;;;;;1.30;0.47;;;;;;;6.43;92.46;97129.63;5052418;28;20212;-73
2022/02/23 05:19:19;;;;;;;0.40;0.40;;;;;;;6.44;92.75;97136.53;5053233;28;20224;-73
2022/02/23 05:21:45;;;;;;;0.60;0.50;;;;;;;6.31;93.76;97149.84;5053752;28;20720;-73
2022/02/23 05:24:12;;;;;;;1.30;0.50;;;;;;;6.31;93.19;97146.41;5054214;28;20553;-73
2022/02/23 05:26:38;;;;;;;1.60;1.27;;;;;;;6.42;93.06;97149.75;5054311;28;20201;-73
2022/02/23 05:29:05;;;;;;;4.33;1.70;;;;;;;6.36;93.26;97158.13;5054178;28;20201;-73
2022/02/23 05:31:32;;;;;;;6.73;3.13;;;;;;;6.55;92.45;97166.09;5053806;28;20235;-74
2022/02/23 05:33:59;;;;;;;10.73;4.77;;;;;;;6.45;91.98;97175.69;5053979;28;20197;-73
2022/02/23 05:36:25;;;;;;;12.30;6.07;;;;;;;6.40;92.33;97180.50;5054134;28;20330;-74
2022/02/23 05:38:52;;;;;;;15.47;6.10;;;;;;;6.39;92.12;97180.59;5053690;28;20205;-73
2022/02/23 05:41:18;;;;;;;6.23;2.87;;;;;;;6.15;91.98;97173.03;5053783;28;20708;-74
2022/02/23 05:43:45;;;;;;;1.83;1.07;;;;;;;6.09;92.87;97178.75;5053967;28;20203;-73
2022/02/23 05:46:12;;;;;;;4.27;2.17;;;;;;;6.02;92.68;97182.03;5053963;28;20208;-73
2022/02/23 05:48:39;;;;;;;5.47;2.87;;;;;;;6.25;92.60;97181.78;5053845;28;20205;-73
2022/02/23 05:51:06;;;;;;;4.67;2.70;;;;;;;6.16;92.53;97192.16;5053024;28;20228;-73
2022/02/23 05:53:35;;;;;;;9.47;4.90;;;;;;;6.36;91.96;97202.63;5052293;28;20205;-73
2022/02/23 05:56:04;;;;;;;5.33;3.03;;;;;;;6.13;92.63;97200.28;5041127;28;20327;-73
2022/02/23 05:58:30;;;;;;;3.13;2.80;;;;;;;6.18;92.13;97198.09;5039900;28;21019;-73
2022/02/23 06:00:57;;;;;;;8.00;2.90;;;;;;;6.13;91.60;97203.72;5040174;28;20228;-73
2022/02/23 06:03:23;;;;;;;2.87;1.53;;;;;;;6.05;92.29;97197.47;5039239;28;20213;-73
2022/02/23 06:05:51;;;;;;;3.93;1.63;;;;;;;6.24;92.39;97202.84;5039267;28;20588;-73
2022/02/23 06:08:18;;;;;;;1.73;1.33;;;;;;;5.79;93.34;97204.00;5039561;28;20224;-73
2022/02/23 06:10:44;;;;;;;1.23;1.13;;;;;;;5.96;92.68;97213.06;5040125;28;20260;-73
2022/02/23 06:13:11;;;;;;;1.63;1.17;;;;;;;6.01;92.40;97218.75;5038570;28;20209;-73
2022/02/23 06:15:37;;;;;;;3.67;1.90;;;;;;;5.95;92.31;97212.25;5039332;28;20656;-73
2022/02/23 06:18:03;;;;;;;1.53;1.33;;;;;;;6.03;91.81;97219.47;5039135;28;20224;-73
2022/02/23 06:20:30;;;;;;;1.27;1.10;;;;;;;5.99;91.40;97223.31;5039346;28;20526;-73
2022/02/23 06:22:58;;;;;;;0.70;0.60;;;;;;;6.17;91.83;97228.69;5038161;28;20218;-73
2022/02/23 06:25:24;;;;;;;2.63;0.83;;;;;;;5.81;92.32;97230.03;5039012;28;20666;-73
2022/02/23 06:27:51;;;;;;;1.60;0.90;;;;;;;5.96;92.31;97234.00;5038990;28;20205;-73
2022/02/23 06:30:17;;;;;;;1.33;1.03;;;;;;;6.05;91.40;97232.28;5038953;28;20205;-73
2022/02/23 06:32:44;;;;;;;4.53;0.87;;;;;;;6.07;91.25;97240.88;5038578;28;20569;-73
2022/02/23 06:35:10;;;;;;;1.83;0.70;;;;;;;6.13;90.80;97242.13;5036426;28;20557;-73
2022/02/23 06:37:38;;;;;;;2.13;1.23;;;;;;;6.16;91.01;97240.09;5038782;28;20220;-73
2022/02/23 06:40:08;;;;;;;1.30;1.13;;;;;;;6.30;91.09;97249.41;5038990;28;20212;-73
2022/02/23 06:42:37;;;;;;;2.10;1.37;;;;;;;6.38;90.93;97244.41;5038057;28;20871;-73
2022/02/23 06:45:04;;;;;;;2.93;1.47;;;;;;;6.09;92.23;97249.41;5038436;28;20603;-73
2022/02/23 06:47:30;;;;;;;2.10;1.23;;;;;;;6.01;91.63;97255.38;5038430;28;20220;-73
2022/02/23 06:49:57;;;;;;;1.33;1.23;;;;;;;6.04;91.69;97251.56;5038665;28;20205;-73
2022/02/23 06:52:24;;;;;;;1.37;0.93;;;;;;;5.92;92.08;97256.13;5037565;28;20233;-73
2022/02/23 06:54:50;;;;;;;3.90;1.63;;;;;;;5.86;92.13;97259.25;5038597;28;20225;-73
2022/02/23 06:57:18;;;;;;;2.83;1.23;;;;;;;5.98;92.33;97268.72;5038823;28;20753;-73
2022/02/23 06:59:45;;;;;;;1.33;1.07;;;;;;;5.99;92.25;97276.44;5038530;28;20256;-73
2022/02/23 07:02:13;;;;;;;4.63;1.20;;;;;;;6.01;91.33;97285.00;5037892;28;20236;-73
2022/02/23 07:04:40;;;;;;;1.30;0.80;;;;;;;6.10;91.72;97289.50;5038042;28;20205;-73
2022/02/23 07:07:07;;;;;;;6.03;0.60;;;;;;;6.13;91.66;97291.84;5037498;28;21248;-73
2022/02/23 07:09:34;;;;;;;2.13;1.73;;;;;;;5.91;92.92;97296.34;5038081;28;20766;-73
2022/02/23 07:12:04;;;;;;;3.80;1.67;;;;;;;6.04;92.30;97291.78;5038161;28;20225;-73
2022/02/23 07:14:31;;;;;;;4.13;1.77;;;;;;;6.21;92.65;97298.13;5037317;28;20254;-73
2022/02/23 07:16:58;;;;;;;2.50;1.07;;;;;;;6.13;92.17;97299.72;5037514;28;20224;-73
2022/02/23 07:19:24;;;;;;;1.17;0.87;;;;;;;6.26;91.76;97308.22;5037315;28;20213;-73
2022/02/23 07:21:51;;;;;;;3.80;1.67;;;;;;;6.31;92.54;97313.91;5037710;28;20225;-73
2022/02/23 07:24:19;;;;;;;0.80;0.70;;;;;;;6.05;93.12;97312.59;5037552;28;20676;-73
2022/02/23 07:26:45;;;;;;;0.67;0.67;;;;;;;6.43;91.77;97316.38;5037506;28;20197;-73
2022/02/23 07:29:12;;;;;;;5.40;1.43;;;;;;;6.57;90.77;97318.69;5037559;28;20205;-73
2022/02/23 07:31:43;;;;;;;0.83;0.60;;;;;;;6.86;90.78;97322.31;5037414;28;20229;-73
2022/02/23 07:34:09;;;;;;;2.50;1.03;;;;;;;6.56;91.40;97327.50;5035423;28;20312;-73
2022/02/23 07:36:36;;;;;;;3.40;1.40;;;;;;;6.85;90.13;97325.91;5037521;28;20704;-73
2022/02/23 07:39:04;;;;;;;1.37;0.73;;;;;;;7.08;90.25;97323.00;5037584;28;20216;-73
2022/02/23 07:41:30;;;;;;;1.93;0.73;;;;;;;6.91;90.42;97326.22;5037912;28;20232;-73
2022/02/23 07:43:58;;;;;;;6.67;0.53;;;;;;;6.88;90.33;97325.66;5037547;28;20205;-73
2022/02/23 07:46:24;;;;;;;4.13;0.77;;;;;;;6.72;90.53;97340.97;5037028;28;20208;-73
2022/02/23 07:48:58;;;;;;;0.40;0.40;;;;;;;6.68;91.32;97339.56;5037850;28;20257;-73
2022/02/23 07:51:24;;;;;;;3.33;0.90;;;;;;;6.72;91.29;97338.34;5037245;28;20279;-73
2022/02/23 07:53:52;;;;;;;0.90;0.83;;;;;;;6.85;90.61;97337.22;5037461;28;20205;-73
2022/02/23 07:56:20;;;;;;;0.43;0.43;;;;;;;6.80;91.76;97346.41;5037272;28;20710;-73
2022/02/23 07:58:46;;;;;;;1.30;0.70;;;;;;;6.90;90.71;97344.69;5037309;28;20204;-73
2022/02/23 08:01:28;;;;;;;1.70;0.43;;;;;;;6.96;90.96;97338.94;5037167;28;20716;-73
2022/02/23 08:03:55;;;;;;;1.43;0.90;;;;;;;7.29;91.58;97344.78;5036366;28;20197;-73
2022/02/23 08:06:22;;;;;;;0.83;0.60;;;;;;;7.10;89.74;97346.47;5037570;28;20204;-73
2022/02/23 08:08:48;;;;;;;1.40;0.87;;;;;;;7.23;90.57;97347.94;5037772;28;20690;-73
2022/02/23 08:11:18;;;;;;;2.23;0.87;;;;;;;7.12;89.79;97350.63;5036612;28;20687;-73
2022/02/23 08:13:44;;;;;;;0.53;0.50;;;;;;;7.30;88.45;97355.13;5036324;28;20213;-73
2022/02/23 08:21:53;;;;;;;0.60;0.60;;;;;;;7.86;87.02;97351.09;5039481;28;20279;-73
2022/02/23 08:24:19;;;;;;;0.67;0.50;;;;;;;7.33;87.55;97361.91;5040153;28;20216;-73
2022/02/23 08:26:46;;;;;;;0.40;0.40;;;;;;;7.37;87.20;97358.09;5041251;28;20197;-73
2022/02/23 08:29:12;;;;;;;3.60;0.87;;;;;;;7.45;88.92;97360.88;5040767;28;20209;-73
2022/02/23 08:31:39;;;;;;;2.00;1.00;;;;;;;7.50;88.04;97362.13;5040609;28;20221;-73
2022/02/23 08:34:07;;;;;;;2.23;1.10;;;;;;;7.87;88.28;97363.25;5036984;28;20211;-73
2022/02/23 08:36:33;;;;;;;1.37;0.60;;;;;;;7.63;88.58;97360.13;5040627;28;20534;-73
2022/02/23 08:39:00;;;;;;;1.20;0.80;;;;;;;7.82;88.30;97360.19;5040402;28;20689;-73
2022/02/23 08:41:27;;;;;;;0.50;0.50;;;;;;;7.96;87.21;97362.44;5039772;28;20228;-73
2022/02/23 08:43:54;;;;;;;1.70;0.87;;;;;;;7.86;85.37;97359.78;5039448;28;20205;-73
2022/02/23 08:46:20;;;;;;;1.97;1.53;;;;;;;8.10;85.95;97362.88;5040355;28;20220;-73
2022/02/23 08:48:46;;;;;;;1.00;0.80;;;;;;;8.19;85.46;97359.50;5040312;28;20216;-73
2022/02/23 08:51:14;;;;;;;0.87;0.70;;;;;;;8.49;85.15;97364.66;5040490;28;21141;-73
2022/02/23 08:53:41;;;;;;;1.07;0.60;;;;;;;8.16;84.93;97364.19;5039745;28;20197;-73
2022/02/23 08:56:07;;;;;;;1.43;0.70;;;;;;;8.41;85.60;97371.56;5040188;28;20847;-73
2022/02/23 08:58:34;;;;;;;3.23;1.07;;;;;;;8.48;84.45;97364.78;5040914;28;20208;-73
2022/02/23 09:01:00;;;;;;;1.77;0.83;;;;;;;8.70;84.75;97365.34;5040180;28;20225;-73
2022/02/23 09:03:27;;;;;;;0.97;0.57;;;;;;;8.50;83.18;97366.28;5038824;28;20244;-73
2022/02/23 09:05:53;;;;;;;2.60;1.10;;;;;;;8.41;84.07;97361.06;5039889;28;20209;-73
2022/02/23 09:08:21;;;;;;;0.93;0.70;;;;;;;8.86;83.68;97361.19;5040191;28;20212;-73
2022/02/23 09:10:48;;;;;;;0.80;0.70;;;;;;;8.83;82.99;97368.53;5039499;28;20221;-73
2022/02/23 09:13:14;;;;;;;19.13;1.73;;;;;;;8.85;82.36;97371.88;5038635;28;20209;-73
2022/02/23 09:15:41;;;;;;;3.93;1.53;;;;;;;8.72;82.90;97366.88;5040301;28;20221;-73
2022/02/23 09:18:07;;;;;;;1.40;1.10;;;;;;;8.83;82.06;97369.34;5039064;28;20216;-73
2022/02/23 09:20:34;;;;;;;0.93;0.80;;;;;;;8.85;81.83;97362.16;5039707;28;20217;-73
2022/02/23 09:23:01;;;;;;;1.40;1.30;;;;;;;8.84;80.91;97360.50;5039586;28;20205;-73
2022/02/23 09:25:29;;;;;;;1.20;0.87;;;;;;;8.85;80.33;97359.53;5040139;28;20202;-73
2022/02/23 09:27:55;;;;;;;3.97;1.07;;;;;;;8.89;79.51;97368.78;5039260;28;20213;-72
2022/02/23 09:30:22;;;;;;;3.43;1.40;;;;;;;9.08;79.89;97371.41;5040002;28;20688;-73
2022/02/23 09:32:49;;;;;;;3.43;1.00;;;;;;;9.17;79.51;97367.94;5037163;28;20575;-73
2022/02/23 09:35:17;;;;;;;4.70;1.33;;;;;;;9.00;77.88;97366.03;5038652;28;20255;-73
2022/02/23 09:37:43;;;;;;;1.13;0.70;;;;;;;9.45;76.00;97361.78;5039573;28;20209;-73
2022/02/23 09:40:12;;;;;;;8.03;1.30;;;;;;;9.79;75.40;97359.28;5039534;28;20209;-73
2022/02/23 09:42:40;;;;;;;1.17;0.90;;;;;;;10.14;74.75;97356.78;5038383;28;20228;-73
2022/02/23 09:45:07;;;;;;;1.80;0.90;;;;;;;9.98;73.60;97366.28;5039110;28;20216;-73
2022/02/23 09:47:35;;;;;;;1.20;0.83;;;;;;;9.92;72.15;97362.41;5038857;28;20669;-73
2022/02/23 09:50:05;;;;;;;7.80;1.30;;;;;;;9.94;71.37;97360.47;5038790;28;20216;-73
2022/02/23 09:52:33;;;;;;;1.10;0.77;;;;;;;9.79;71.06;97361.94;5038024;28;20705;-73
2022/02/23 09:55:02;;;;;;;1.93;1.07;;;;;;;10.15;71.49;97355.00;5038987;28;20208;-73
2022/02/23 09:57:29;;;;;;;8.30;2.07;;;;;;;10.54;70.78;97359.88;5038169;28;20221;-73
2022/02/23 09:59:58;;;;;;;13.60;1.70;;;;;;;11.01;68.17;97355.03;5039039;28;20205;-73
2022/02/23 10:02:25;;;;;;;5.93;1.17;;;;;;;10.95;67.95;97357.47;5038392;28;20232;-73
2022/02/23 10:04:52;;;;;;;9.33;1.27;;;;;;;10.75;69.00;97357.78;5038706;28;20682;-73
2022/02/23 10:07:28;;;;;;;6.47;1.77;;;;;;;11.20;68.23;97354.84;5038567;28;20201;-73
2022/02/23 10:09:57;;;;;;;2.37;1.20;;;;;;;11.09;66.60;97363.00;5039154;28;20204;-73
2022/02/23 10:12:26;;;;;;;7.30;2.10;;;;;;;11.18;67.33;97362.09;5037558;28;20735;-72
2022/02/23 10:15:07;;;;;;;8.07;2.40;;;;;;;11.37;66.51;97359.25;5038830;28;20205;-73
2022/02/23 10:17:38;;;;;;;2.60;1.27;;;;;;;11.30;68.19;97363.50;5039105;28;20248;-73
2022/02/23 10:20:19;;;;;;;3.63;1.20;;;;;;;11.37;64.90;97366.38;5038214;28;20210;-73
2022/02/23 10:22:46;;;;;;;4.73;0.87;;;;;;;10.93;64.41;97365.53;5037488;28;20205;-73
2022/02/23 10:25:12;;;;;;;1.23;0.77;;;;;;;10.96;63.93;97361.75;5038387;28;20232;-73
2022/02/23 10:27:39;;;;;;;2.30;1.03;;;;;;;10.38;65.88;97364.97;5039070;28;20197;-73
2022/02/23 10:30:08;;;;;;;6.87;1.87;;;;;;;11.30;65.24;97366.16;5038010;28;20224;-72
2022/02/23 10:32:35;;;;;;;3.43;0.93;;;;;;;11.02;66.36;97358.50;5037275;28;20220;-73
2022/02/23 10:35:04;;;;;;;5.63;0.93;;;;;;;10.94;65.52;97353.97;5035344;28;20682;-73
2022/02/23 10:37:31;;;;;;;3.63;0.90;;;;;;;11.17;61.58;97352.50;5037924;28;20221;-72
2022/02/23 10:40:00;;;;;;;0.90;0.50;;;;;;;11.52;63.51;97346.34;5036788;28;20205;-73
2022/02/23 10:42:29;;;;;;;3.30;1.07;;;;;;;11.70;63.23;97345.31;5037316;28;20232;-73
2022/02/23 10:44:57;;;;;;;0.90;0.60;;;;;;;11.91;62.17;97349.19;5038399;28;20205;-73
2022/02/23 10:47:29;;;;;;;2.60;1.43;;;;;;;12.08;61.11;97342.16;5037807;28;20197;-72
2022/02/23 10:50:03;;;;;;;1.83;0.63;;;;;;;12.48;61.36;97343.94;5038181;28;20259;-73
2022/02/23 10:52:31;;;;;;;5.67;0.83;;;;;;;12.23;59.97;97347.53;5037371;28;20228;-72
2022/02/23 10:55:15;;;;;;;3.80;1.23;;;;;;;12.44;58.60;97341.81;5037915;28;20251;-73
2022/02/23 10:57:47;;;;;;;0.83;0.70;;;;;;;12.24;60.12;97338.63;5037773;28;20221;-73
2022/02/23 11:00:19;;;;;;;7.70;1.00;;;;;;;12.50;60.70;97334.06;5037128;28;20216;-72
2022/02/23 11:02:47;;;;;;;4.10;0.90;;;;;;;12.19;59.94;97335.63;5036799;28;20340;-73
2022/02/23 11:05:14;;;;;;;12.10;1.30;;;;;;;12.60;59.37;97337.38;5037226;28;20284;-73
2022/02/23 11:07:42;;;;;;;4.33;0.50;;;;;;;12.39;60.81;97330.88;5037595;28;20197;-73
2022/02/23 11:10:13;;;;;;;1.97;1.10;;;;;;;12.03;59.06;97325.97;5036832;28;20201;-72
2022/02/23 11:12:42;;;;;;;2.87;1.10;;;;;;;11.89;59.45;97326.56;5036305;28;20570;-72
2022/02/23 11:15:10;;;;;;;3.37;0.90;;;;;;;12.45;59.92;97323.13;5037474;28;20205;-73
2022/02/23 11:17:39;;;;;;;5.60;1.23;;;;;;;12.52;59.91;97315.38;5036946;28;20723;-73
2022/02/23 11:20:10;;;;;;;0.90;0.60;;;;;;;12.39;62.19;97310.56;5037186;28;20208;-72
2022/02/23 11:22:38;;;;;;;5.37;1.20;;;;;;;12.18;64.98;97311.97;5036235;28;20208;-73
2022/02/23 11:25:06;;;;;;;6.60;1.40;;;;;;;12.54;60.18;97308.94;5036715;28;20201;-73
2022/02/23 11:27:36;;;;;;;4.10;1.13;;;;;;;11.66;62.19;97314.94;5037002;28;20204;-72
2022/02/23 11:30:06;;;;;;;12.17;1.33;;;;;;;12.28;60.67;97304.75;5036116;28;20205;-73
2022/02/23 11:32:38;;;;;;;2.20;0.80;;;;;;;12.52;61.85;97302.16;5036291;28;20205;-72
2022/02/23 11:35:07;;;;;;;6.20;1.10;;;;;;;12.46;59.90;97300.16;5034660;28;20205;-72
2022/02/23 11:37:34;;;;;;;1.63;0.53;;;;;;;12.83;56.68;97304.84;5035839;28;20751;-72
2022/02/23 11:40:01;;;;;;;3.70;1.27;;;;;;;12.32;58.80;97300.78;5037039;28;20205;-72
2022/02/23 11:42:28;;;;;;;1.93;1.20;;;;;;;11.90;57.41;97294.75;5036200;28;20705;-72
2022/02/23 11:45:07;;;;;;;3.83;1.40;;;;;;;12.56;58.66;97287.63;5036418;28;20213;-72